sensor_id;sensor_type;location;lat;lon;timestamp;P1;durP1;ratioP1;P2;durP2;ratioP2
69917;SDS011;57203;42.672;23.334;2023-02-24T00:00:04;12.5;;;8.2;;
69917;SDS011;57203;42.672;23.334;2023-02-24T00:01:09;12.9;;;7.8;;
69917;SDS011;57203;42.672;23.334;2023-02-24T00:02:04;12.9;;;7.4;;
69917;SDS011;57203;42.672;23.334;2023-02-24T00:03:04;12.2;;;7.8;;
69917;SDS011;57203;42.672;23.334;2023-02-24T00:04:05;14.5;;;7.5;;
69917;SDS011;57203;42.672;23.334;2023-02-24T00:05:05;12.6;;;7.1;;
69917;SDS011;57203;42.672;23.334;2023-02-24T00:06:05;13.8;;;7.7;;
69917;SDS011;57203;42.672;23.334;2023-02-24T00:07:05;13.8;;;7.6;;
69917;SDS011;57203;42.672;23.334;2023-02-24T00:08:05;14.0;;;7.3;;
69917;SDS011;57203;42.672;23.334;2023-02-24T00:10:06;13.2;;;7.2;;
69917;SDS011;57203;42.672;23.334;2023-02-24T00:11:06;13.0;;;7.7;;
69917;SDS011;57203;42.672;23.334;2023-02-24T00:12:06;12.1;;;7.2;;
69917;SDS011;57203;42.672;23.334;2023-02-24T00:13:06;12.1;;;7.1;;
69917;SDS011;57203;42.672;23.334;2023-02-24T00:14:07;12.4;;;6.8;;
69917;SDS011;57203;42.672;23.334;2023-02-24T00:15:07;12.4;;;7.7;;
69917;SDS011;57203;42.672;23.334;2023-02-24T00:16:07;13.3;;;7.4;;
69917;SDS011;57203;42.672;23.334;2023-02-24T00:17:07;10.4;;;6.7;;
69917;SDS011;57203;42.672;23.334;2023-02-24T00:18:07;13.2;;;7.1;;
69917;SDS011;57203;42.672;23.334;2023-02-24T00:19:07;13.2;;;7.3;;
69917;SDS011;57203;42.672;23.334;2023-02-24T00:21:09;12.9;;;7.0;;
69917;SDS011;57203;42.672;23.334;2023-02-24T00:23:08;11.6;;;7.3;;
69917;SDS011;57203;42.672;23.334;2023-02-24T00:24:08;12.6;;;6.8;;
69917;SDS011;57203;42.672;23.334;2023-02-24T00:25:08;11.0;;;6.9;;
69917;SDS011;57203;42.672;23.334;2023-02-24T00:26:09;10.5;;;7.2;;
69917;SDS011;57203;42.672;23.334;2023-02-24T00:27:09;12.4;;;7.6;;
69917;SDS011;57203;42.672;23.334;2023-02-24T00:28:09;12.4;;;7.1;;
69917;SDS011;57203;42.672;23.334;2023-02-24T00:29:10;13.1;;;7.2;;
69917;SDS011;57203;42.672;23.334;2023-02-24T00:30:09;14.5;;;7.3;;
69917;SDS011;57203;42.672;23.334;2023-02-24T00:31:10;14.5;;;7.6;;
69917;SDS011;57203;42.672;23.334;2023-02-24T00:32:09;12.8;;;7.8;;
69917;SDS011;57203;42.672;23.334;2023-02-24T00:33:10;12.5;;;7.1;;
69917;SDS011;57203;42.672;23.334;2023-02-24T00:34:10;12.8;;;7.4;;
69917;SDS011;57203;42.672;23.334;2023-02-24T00:35:10;12.8;;;7.1;;
69917;SDS011;57203;42.672;23.334;2023-02-24T00:36:11;11.7;;;7.4;;
69917;SDS011;57203;42.672;23.334;2023-02-24T00:37:10;11.6;;;7.2;;
69917;SDS011;57203;42.672;23.334;2023-02-24T00:38:10;10.7;;;7.1;;
69917;SDS011;57203;42.672;23.334;2023-02-24T00:39:11;11.2;;;7.3;;
69917;SDS011;57203;42.672;23.334;2023-02-24T00:40:11;11.7;;;7.8;;
69917;SDS011;57203;42.672;23.334;2023-02-24T00:41:12;11.5;;;7.2;;
69917;SDS011;57203;42.672;23.334;2023-02-24T00:42:11;11.5;;;8.1;;
69917;SDS011;57203;42.672;23.334;2023-02-24T00:43:11;14.0;;;7.3;;
69917;SDS011;57203;42.672;23.334;2023-02-24T00:44:12;13.2;;;6.7;;
69917;SDS011;57203;42.672;23.334;2023-02-24T00:45:12;11.0;;;7.0;;
69917;SDS011;57203;42.672;23.334;2023-02-24T00:46:13;11.0;;;7.2;;
69917;SDS011;57203;42.672;23.334;2023-02-24T00:47:13;10.8;;;7.0;;
69917;SDS011;57203;42.672;23.334;2023-02-24T00:48:12;11.0;;;10.2;;
69917;SDS011;57203;42.672;23.334;2023-02-24T00:49:15;17.2;;;8.0;;
69917;SDS011;57203;42.672;23.334;2023-02-24T00:50:13;12.0;;;6.8;;
69917;SDS011;57203;42.672;23.334;2023-02-24T00:51:13;11.9;;;8.3;;
69917;SDS011;57203;42.672;23.334;2023-02-24T00:52:14;15.3;;;9.0;;
69917;SDS011;57203;42.672;23.334;2023-02-24T00:53:13;15.2;;;7.0;;
69917;SDS011;57203;42.672;23.334;2023-02-24T00:54:13;10.2;;;6.6;;
69917;SDS011;57203;42.672;23.334;2023-02-24T00:55:14;10.2;;;6.5;;
69917;SDS011;57203;42.672;23.334;2023-02-24T00:56:14;10.3;;;6.9;;
69917;SDS011;57203;42.672;23.334;2023-02-24T00:57:14;11.8;;;7.3;;
69917;SDS011;57203;42.672;23.334;2023-02-24T00:58:14;11.8;;;7.4;;
69917;SDS011;57203;42.672;23.334;2023-02-24T00:59:15;11.3;;;6.9;;
69917;SDS011;57203;42.672;23.334;2023-02-24T01:00:15;13.1;;;7.1;;
69917;SDS011;57203;42.672;23.334;2023-02-24T01:01:16;9.7;;;6.2;;
69917;SDS011;57203;42.672;23.334;2023-02-24T01:02:15;11.7;;;7.1;;
69917;SDS011;57203;42.672;23.334;2023-02-24T01:03:15;11.7;;;6.7;;
69917;SDS011;57203;42.672;23.334;2023-02-24T01:04:16;12.4;;;6.3;;
69917;SDS011;57203;42.672;23.334;2023-02-24T01:05:15;9.8;;;7.4;;
69917;SDS011;57203;42.672;23.334;2023-02-24T01:06:16;11.5;;;7.3;;
69917;SDS011;57203;42.672;23.334;2023-02-24T01:07:16;11.3;;;7.2;;
69917;SDS011;57203;42.672;23.334;2023-02-24T01:08:16;11.4;;;7.1;;
69917;SDS011;57203;42.672;23.334;2023-02-24T01:09:17;11.4;;;7.8;;
69917;SDS011;57203;42.672;23.334;2023-02-24T01:10:16;11.5;;;7.3;;
69917;SDS011;57203;42.672;23.334;2023-02-24T01:11:17;12.0;;;7.0;;
69917;SDS011;57203;42.672;23.334;2023-02-24T01:12:16;10.3;;;7.6;;
69917;SDS011;57203;42.672;23.334;2023-02-24T01:13:17;11.6;;;7.1;;
69917;SDS011;57203;42.672;23.334;2023-02-24T01:14:18;11.6;;;7.6;;
69917;SDS011;57203;42.672;23.334;2023-02-24T01:15:17;12.0;;;7.3;;
69917;SDS011;57203;42.672;23.334;2023-02-24T01:17:18;12.5;;;7.7;;
69917;SDS011;57203;42.672;23.334;2023-02-24T01:18:18;12.4;;;7.5;;
69917;SDS011;57203;42.672;23.334;2023-02-24T01:19:18;10.9;;;7.8;;
69917;SDS011;57203;42.672;23.334;2023-02-24T01:20:18;10.9;;;7.5;;
69917;SDS011;57203;42.672;23.334;2023-02-24T01:21:18;11.9;;;7.7;;
69917;SDS011;57203;42.672;23.334;2023-02-24T01:22:19;11.9;;;7.5;;
69917;SDS011;57203;42.672;23.334;2023-02-24T01:23:18;13.8;;;6.8;;
69917;SDS011;57203;42.672;23.334;2023-02-24T01:24:19;11.1;;;8.0;;
69917;SDS011;57203;42.672;23.334;2023-02-24T01:25:19;12.4;;;7.4;;
69917;SDS011;57203;42.672;23.334;2023-02-24T01:26:19;12.3;;;6.9;;
69917;SDS011;57203;42.672;23.334;2023-02-24T01:27:19;10.7;;;7.6;;
69917;SDS011;57203;42.672;23.334;2023-02-24T01:29:19;11.4;;;7.2;;
69917;SDS011;57203;42.672;23.334;2023-02-24T01:30:20;11.4;;;7.5;;
69917;SDS011;57203;42.672;23.334;2023-02-24T01:32:20;11.3;;;7.8;;
69917;SDS011;57203;42.672;23.334;2023-02-24T01:34:20;12.0;;;7.6;;
69917;SDS011;57203;42.672;23.334;2023-02-24T01:35:21;12.2;;;7.8;;
69917;SDS011;57203;42.672;23.334;2023-02-24T01:36:21;12.0;;;7.7;;
69917;SDS011;57203;42.672;23.334;2023-02-24T01:37:21;13.4;;;7.4;;
69917;SDS011;57203;42.672;23.334;2023-02-24T01:38:21;11.3;;;7.5;;
69917;SDS011;57203;42.672;23.334;2023-02-24T01:39:21;10.7;;;6.3;;
69917;SDS011;57203;42.672;23.334;2023-02-24T01:40:21;10.5;;;7.6;;
69917;SDS011;57203;42.672;23.334;2023-02-24T01:41:22;12.4;;;7.3;;
69917;SDS011;57203;42.672;23.334;2023-02-24T01:42:22;11.0;;;7.1;;
69917;SDS011;57203;42.672;23.334;2023-02-24T01:43:22;11.1;;;8.3;;
69917;SDS011;57203;42.672;23.334;2023-02-24T01:45:23;10.2;;;7.8;;
69917;SDS011;57203;42.672;23.334;2023-02-24T01:46:23;10.9;;;6.4;;
69917;SDS011;57203;42.672;23.334;2023-02-24T01:47:23;9.7;;;7.7;;
69917;SDS011;57203;42.672;23.334;2023-02-24T01:48:23;9.7;;;7.4;;
69917;SDS011;57203;42.672;23.334;2023-02-24T01:49:24;9.7;;;7.6;;
69917;SDS011;57203;42.672;23.334;2023-02-24T01:50:23;11.1;;;6.8;;
69917;SDS011;57203;42.672;23.334;2023-02-24T01:51:23;11.3;;;8.2;;
69917;SDS011;57203;42.672;23.334;2023-02-24T01:52:24;12.2;;;7.4;;
69917;SDS011;57203;42.672;23.334;2023-02-24T01:53:24;12.0;;;7.3;;
69917;SDS011;57203;42.672;23.334;2023-02-24T01:54:24;12.0;;;7.1;;
69917;SDS011;57203;42.672;23.334;2023-02-24T01:55:25;12.0;;;7.5;;
69917;SDS011;57203;42.672;23.334;2023-02-24T01:56:24;11.0;;;7.1;;
69917;SDS011;57203;42.672;23.334;2023-02-24T01:57:25;11.0;;;6.8;;
69917;SDS011;57203;42.672;23.334;2023-02-24T01:58:25;10.3;;;7.3;;
69917;SDS011;57203;42.672;23.334;2023-02-24T01:59:26;10.3;;;7.0;;
69917;SDS011;57203;42.672;23.334;2023-02-24T02:00:25;9.7;;;6.4;;
69917;SDS011;57203;42.672;23.334;2023-02-24T02:01:25;10.2;;;7.1;;
69917;SDS011;57203;42.672;23.334;2023-02-24T02:02:25;10.2;;;7.6;;
69917;SDS011;57203;42.672;23.334;2023-02-24T02:03:27;12.5;;;7.2;;
69917;SDS011;57203;42.672;23.334;2023-02-24T02:04:27;10.3;;;6.5;;
69917;SDS011;57203;42.672;23.334;2023-02-24T02:05:26;10.3;;;7.0;;
69917;SDS011;57203;42.672;23.334;2023-02-24T02:07:27;10.7;;;6.9;;
69917;SDS011;57203;42.672;23.334;2023-02-24T02:08:27;9.8;;;6.6;;
69917;SDS011;57203;42.672;23.334;2023-02-24T02:09:27;9.8;;;6.8;;
69917;SDS011;57203;42.672;23.334;2023-02-24T02:10:27;10.2;;;6.3;;
69917;SDS011;57203;42.672;23.334;2023-02-24T02:11:27;10.2;;;6.4;;
69917;SDS011;57203;42.672;23.334;2023-02-24T02:12:27;12.4;;;7.0;;
69917;SDS011;57203;42.672;23.334;2023-02-24T02:13:27;12.4;;;6.8;;
69917;SDS011;57203;42.672;23.334;2023-02-24T02:14:27;11.0;;;6.4;;
69917;SDS011;57203;42.672;23.334;2023-02-24T02:15:28;10.5;;;6.8;;
69917;SDS011;57203;42.672;23.334;2023-02-24T02:17:29;10.3;;;6.4;;
69917;SDS011;57203;42.672;23.334;2023-02-24T02:18:31;10.3;;;6.8;;
69917;SDS011;57203;42.672;23.334;2023-02-24T02:19:37;11.3;;;6.7;;
69917;SDS011;57203;42.672;23.334;2023-02-24T02:22:37;9.5;;;6.4;;
69917;SDS011;57203;42.672;23.334;2023-02-24T02:23:34;9.5;;;6.3;;
69917;SDS011;57203;42.672;23.334;2023-02-24T02:24:32;9.6;;;5.9;;
69917;SDS011;57203;42.672;23.334;2023-02-24T02:25:32;9.6;;;6.3;;
69917;SDS011;57203;42.672;23.334;2023-02-24T02:26:38;9.8;;;5.8;;
69917;SDS011;57203;42.672;23.334;2023-02-24T02:27:32;9.1;;;6.2;;
69917;SDS011;57203;42.672;23.334;2023-02-24T02:28:34;9.1;;;6.0;;
69917;SDS011;57203;42.672;23.334;2023-02-24T02:29:36;11.1;;;7.0;;
69917;SDS011;57203;42.672;23.334;2023-02-24T02:30:36;9.5;;;6.4;;
69917;SDS011;57203;42.672;23.334;2023-02-24T02:31:35;9.5;;;6.6;;
69917;SDS011;57203;42.672;23.334;2023-02-24T02:32:39;10.5;;;6.4;;
69917;SDS011;57203;42.672;23.334;2023-02-24T02:34:33;11.6;;;6.4;;
69917;SDS011;57203;42.672;23.334;2023-02-24T02:35:31;12.2;;;7.3;;
69917;SDS011;57203;42.672;23.334;2023-02-24T02:36:32;12.2;;;5.8;;
69917;SDS011;57203;42.672;23.334;2023-02-24T02:37:32;10.0;;;6.5;;
69917;SDS011;57203;42.672;23.334;2023-02-24T02:38:33;12.3;;;7.0;;
69917;SDS011;57203;42.672;23.334;2023-02-24T02:39:34;12.3;;;6.8;;
69917;SDS011;57203;42.672;23.334;2023-02-24T02:40:33;11.9;;;6.3;;
69917;SDS011;57203;42.672;23.334;2023-02-24T02:41:33;10.9;;;7.1;;
69917;SDS011;57203;42.672;23.334;2023-02-24T02:42:34;13.3;;;7.0;;
69917;SDS011;57203;42.672;23.334;2023-02-24T02:43:36;13.3;;;7.6;;
69917;SDS011;57203;42.672;23.334;2023-02-24T02:44:35;15.1;;;8.0;;
69917;SDS011;57203;42.672;23.334;2023-02-24T02:45:34;15.1;;;7.6;;
69917;SDS011;57203;42.672;23.334;2023-02-24T02:46:34;15.9;;;8.1;;
69917;SDS011;57203;42.672;23.334;2023-02-24T02:47:34;14.2;;;7.7;;
69917;SDS011;57203;42.672;23.334;2023-02-24T02:48:35;13.8;;;7.8;;
69917;SDS011;57203;42.672;23.334;2023-02-24T02:49:35;15.4;;;7.1;;
69917;SDS011;57203;42.672;23.334;2023-02-24T02:50:35;13.3;;;6.8;;
69917;SDS011;57203;42.672;23.334;2023-02-24T02:52:34;12.3;;;7.1;;
69917;SDS011;57203;42.672;23.334;2023-02-24T02:53:35;11.8;;;6.8;;
69917;SDS011;57203;42.672;23.334;2023-02-24T02:54:37;11.8;;;7.3;;
69917;SDS011;57203;42.672;23.334;2023-02-24T02:55:37;11.5;;;6.4;;
69917;SDS011;57203;42.672;23.334;2023-02-24T02:56:36;11.5;;;6.8;;
69917;SDS011;57203;42.672;23.334;2023-02-24T02:57:35;12.9;;;7.0;;
69917;SDS011;57203;42.672;23.334;2023-02-24T02:58:36;10.6;;;6.9;;
69917;SDS011;57203;42.672;23.334;2023-02-24T02:59:36;11.5;;;6.7;;
69917;SDS011;57203;42.672;23.334;2023-02-24T03:01:36;11.2;;;7.4;;
69917;SDS011;57203;42.672;23.334;2023-02-24T03:02:36;12.9;;;6.4;;
69917;SDS011;57203;42.672;23.334;2023-02-24T03:03:37;10.7;;;6.8;;
69917;SDS011;57203;42.672;23.334;2023-02-24T03:04:37;10.7;;;7.1;;
69917;SDS011;57203;42.672;23.334;2023-02-24T03:05:37;11.4;;;6.6;;
69917;SDS011;57203;42.672;23.334;2023-02-24T03:06:38;10.6;;;6.7;;
69917;SDS011;57203;42.672;23.334;2023-02-24T03:07:39;15.9;;;7.3;;
69917;SDS011;57203;42.672;23.334;2023-02-24T03:08:38;15.9;;;5.7;;
69917;SDS011;57203;42.672;23.334;2023-02-24T03:10:37;9.8;;;6.7;;
69917;SDS011;57203;42.672;23.334;2023-02-24T03:11:37;9.0;;;5.9;;
69917;SDS011;57203;42.672;23.334;2023-02-24T03:12:37;9.0;;;6.3;;
69917;SDS011;57203;42.672;23.334;2023-02-24T03:13:38;11.5;;;6.2;;
69917;SDS011;57203;42.672;23.334;2023-02-24T03:14:38;9.8;;;6.1;;
69917;SDS011;57203;42.672;23.334;2023-02-24T03:15:38;11.5;;;6.4;;
69917;SDS011;57203;42.672;23.334;2023-02-24T03:16:38;11.9;;;6.5;;
69917;SDS011;57203;42.672;23.334;2023-02-24T03:18:39;12.7;;;7.4;;
69917;SDS011;57203;42.672;23.334;2023-02-24T03:19:39;12.7;;;8.1;;
69917;SDS011;57203;42.672;23.334;2023-02-24T03:20:40;15.8;;;7.5;;
69917;SDS011;57203;42.672;23.334;2023-02-24T03:21:39;13.7;;;8.2;;
69917;SDS011;57203;42.672;23.334;2023-02-24T03:23:41;13.7;;;7.5;;
69917;SDS011;57203;42.672;23.334;2023-02-24T03:24:39;15.0;;;7.9;;
69917;SDS011;57203;42.672;23.334;2023-02-24T03:25:43;16.8;;;8.0;;
69917;SDS011;57203;42.672;23.334;2023-02-24T03:26:40;16.8;;;7.7;;
69917;SDS011;57203;42.672;23.334;2023-02-24T03:27:42;15.2;;;7.5;;
69917;SDS011;57203;42.672;23.334;2023-02-24T03:28:41;14.5;;;7.6;;
69917;SDS011;57203;42.672;23.334;2023-02-24T03:29:42;14.7;;;7.0;;
69917;SDS011;57203;42.672;23.334;2023-02-24T03:31:41;12.8;;;7.3;;
69917;SDS011;57203;42.672;23.334;2023-02-24T03:32:42;15.0;;;6.8;;
69917;SDS011;57203;42.672;23.334;2023-02-24T03:33:42;15.0;;;6.6;;
69917;SDS011;57203;42.672;23.334;2023-02-24T03:34:42;13.6;;;6.3;;
69917;SDS011;57203;42.672;23.334;2023-02-24T03:35:41;13.6;;;5.8;;
69917;SDS011;57203;42.672;23.334;2023-02-24T03:36:41;9.7;;;5.9;;
69917;SDS011;57203;42.672;23.334;2023-02-24T03:37:42;9.7;;;6.0;;
69917;SDS011;57203;42.672;23.334;2023-02-24T03:38:42;9.4;;;5.9;;
69917;SDS011;57203;42.672;23.334;2023-02-24T03:39:42;10.4;;;5.4;;
69917;SDS011;57203;42.672;23.334;2023-02-24T03:40:42;9.1;;;5.7;;
69917;SDS011;57203;42.672;23.334;2023-02-24T03:41:43;10.2;;;4.9;;
69917;SDS011;57203;42.672;23.334;2023-02-24T03:42:44;9.0;;;5.2;;
69917;SDS011;57203;42.672;23.334;2023-02-24T03:43:43;9.3;;;5.5;;
69917;SDS011;57203;42.672;23.334;2023-02-24T03:44:43;9.6;;;4.5;;
69917;SDS011;57203;42.672;23.334;2023-02-24T03:45:43;8.3;;;4.4;;
69917;SDS011;57203;42.672;23.334;2023-02-24T03:46:43;9.6;;;5.1;;
69917;SDS011;57203;42.672;23.334;2023-02-24T03:47:43;8.7;;;5.0;;
69917;SDS011;57203;42.672;23.334;2023-02-24T03:48:44;7.6;;;4.6;;
69917;SDS011;57203;42.672;23.334;2023-02-24T03:49:44;8.4;;;5.1;;
69917;SDS011;57203;42.672;23.334;2023-02-24T03:50:44;8.4;;;5.2;;
69917;SDS011;57203;42.672;23.334;2023-02-24T03:51:51;8.1;;;5.0;;
69917;SDS011;57203;42.672;23.334;2023-02-24T03:52:45;8.1;;;6.0;;
69917;SDS011;57203;42.672;23.334;2023-02-24T03:53:48;10.7;;;5.8;;
69917;SDS011;57203;42.672;23.334;2023-02-24T03:54:48;10.7;;;7.0;;
69917;SDS011;57203;42.672;23.334;2023-02-24T03:55:49;12.0;;;6.3;;
69917;SDS011;57203;42.672;23.334;2023-02-24T03:56:46;11.7;;;7.2;;
69917;SDS011;57203;42.672;23.334;2023-02-24T03:57:46;15.3;;;6.0;;
69917;SDS011;57203;42.672;23.334;2023-02-24T03:58:48;11.4;;;6.3;;
69917;SDS011;57203;42.672;23.334;2023-02-24T04:00:47;10.8;;;6.7;;
69917;SDS011;57203;42.672;23.334;2023-02-24T04:01:47;11.7;;;6.2;;
69917;SDS011;57203;42.672;23.334;2023-02-24T04:02:46;11.7;;;6.5;;
69917;SDS011;57203;42.672;23.334;2023-02-24T04:03:47;11.8;;;6.2;;
69917;SDS011;57203;42.672;23.334;2023-02-24T04:04:47;12.0;;;6.5;;
69917;SDS011;57203;42.672;23.334;2023-02-24T04:05:49;12.9;;;6.4;;
69917;SDS011;57203;42.672;23.334;2023-02-24T04:06:49;9.7;;;5.8;;
69917;SDS011;57203;42.672;23.334;2023-02-24T04:07:49;9.7;;;5.9;;
69917;SDS011;57203;42.672;23.334;2023-02-24T04:08:49;13.6;;;6.1;;
69917;SDS011;57203;42.672;23.334;2023-02-24T04:09:49;13.2;;;6.3;;
69917;SDS011;57203;42.672;23.334;2023-02-24T04:10:48;11.9;;;5.7;;
69917;SDS011;57203;42.672;23.334;2023-02-24T04:11:49;10.6;;;5.4;;
69917;SDS011;57203;42.672;23.334;2023-02-24T04:12:48;10.7;;;5.9;;
69917;SDS011;57203;42.672;23.334;2023-02-24T04:13:48;10.6;;;5.5;;
69917;SDS011;57203;42.672;23.334;2023-02-24T04:14:49;10.8;;;6.0;;
69917;SDS011;57203;42.672;23.334;2023-02-24T04:15:49;11.1;;;5.9;;
69917;SDS011;57203;42.672;23.334;2023-02-24T04:16:50;11.1;;;5.5;;
69917;SDS011;57203;42.672;23.334;2023-02-24T04:17:49;10.3;;;6.2;;
69917;SDS011;57203;42.672;23.334;2023-02-24T04:18:49;11.7;;;5.6;;
69917;SDS011;57203;42.672;23.334;2023-02-24T04:19:50;11.7;;;5.3;;
69917;SDS011;57203;42.672;23.334;2023-02-24T04:20:49;10.5;;;5.6;;
69917;SDS011;57203;42.672;23.334;2023-02-24T04:21:49;9.7;;;6.0;;
69917;SDS011;57203;42.672;23.334;2023-02-24T04:22:51;9.7;;;5.2;;
69917;SDS011;57203;42.672;23.334;2023-02-24T04:23:49;10.2;;;5.4;;
69917;SDS011;57203;42.672;23.334;2023-02-24T04:24:50;10.2;;;4.8;;
69917;SDS011;57203;42.672;23.334;2023-02-24T04:25:51;9.3;;;5.0;;
69917;SDS011;57203;42.672;23.334;2023-02-24T04:26:50;9.6;;;4.8;;
69917;SDS011;57203;42.672;23.334;2023-02-24T04:27:51;9.6;;;5.2;;
69917;SDS011;57203;42.672;23.334;2023-02-24T04:29:52;7.9;;;5.0;;
69917;SDS011;57203;42.672;23.334;2023-02-24T04:31:52;8.8;;;4.7;;
69917;SDS011;57203;42.672;23.334;2023-02-24T04:32:51;8.8;;;4.2;;
69917;SDS011;57203;42.672;23.334;2023-02-24T04:33:51;6.3;;;4.5;;
69917;SDS011;57203;42.672;23.334;2023-02-24T04:34:52;8.8;;;4.4;;
69917;SDS011;57203;42.672;23.334;2023-02-24T04:35:52;7.2;;;4.8;;
69917;SDS011;57203;42.672;23.334;2023-02-24T04:36:52;9.9;;;5.3;;
69917;SDS011;57203;42.672;23.334;2023-02-24T04:37:52;8.1;;;4.4;;
69917;SDS011;57203;42.672;23.334;2023-02-24T04:38:52;8.9;;;4.6;;
69917;SDS011;57203;42.672;23.334;2023-02-24T04:39:52;8.9;;;5.2;;
69917;SDS011;57203;42.672;23.334;2023-02-24T04:40:52;8.7;;;5.0;;
69917;SDS011;57203;42.672;23.334;2023-02-24T04:41:53;9.7;;;4.9;;
69917;SDS011;57203;42.672;23.334;2023-02-24T04:42:53;8.0;;;4.5;;
69917;SDS011;57203;42.672;23.334;2023-02-24T04:43:53;8.2;;;5.1;;
69917;SDS011;57203;42.672;23.334;2023-02-24T04:44:53;8.2;;;4.6;;
69917;SDS011;57203;42.672;23.334;2023-02-24T04:45:54;9.6;;;5.0;;
69917;SDS011;57203;42.672;23.334;2023-02-24T04:47:56;9.0;;;5.1;;
69917;SDS011;57203;42.672;23.334;2023-02-24T04:48:54;11.1;;;4.7;;
69917;SDS011;57203;42.672;23.334;2023-02-24T04:49:54;8.1;;;5.0;;
69917;SDS011;57203;42.672;23.334;2023-02-24T04:50:54;8.4;;;4.9;;
69917;SDS011;57203;42.672;23.334;2023-02-24T04:51:54;8.4;;;4.8;;
69917;SDS011;57203;42.672;23.334;2023-02-24T04:54:55;7.9;;;4.7;;
69917;SDS011;57203;42.672;23.334;2023-02-24T04:55:55;7.9;;;5.3;;
69917;SDS011;57203;42.672;23.334;2023-02-24T04:56:55;9.6;;;5.6;;
69917;SDS011;57203;42.672;23.334;2023-02-24T04:57:55;9.3;;;4.2;;
69917;SDS011;57203;42.672;23.334;2023-02-24T04:58:55;9.3;;;4.3;;
69917;SDS011;57203;42.672;23.334;2023-02-24T04:59:56;6.5;;;4.2;;
69917;SDS011;57203;42.672;23.334;2023-02-24T05:00:56;7.2;;;4.9;;
69917;SDS011;57203;42.672;23.334;2023-02-24T05:01:56;8.9;;;4.5;;
69917;SDS011;57203;42.672;23.334;2023-02-24T05:02:56;8.9;;;4.6;;
69917;SDS011;57203;42.672;23.334;2023-02-24T05:04:57;9.1;;;4.1;;
69917;SDS011;57203;42.672;23.334;2023-02-24T05:05:58;6.5;;;4.3;;
69917;SDS011;57203;42.672;23.334;2023-02-24T05:07:58;10.9;;;5.1;;
69917;SDS011;57203;42.672;23.334;2023-02-24T05:08:57;8.6;;;4.3;;
69917;SDS011;57203;42.672;23.334;2023-02-24T05:09:57;7.6;;;4.7;;
69917;SDS011;57203;42.672;23.334;2023-02-24T05:10:58;8.8;;;4.6;;
69917;SDS011;57203;42.672;23.334;2023-02-24T05:11:58;8.4;;;4.3;;
69917;SDS011;57203;42.672;23.334;2023-02-24T05:12:58;8.9;;;4.6;;
69917;SDS011;57203;42.672;23.334;2023-02-24T05:13:58;7.6;;;4.3;;
69917;SDS011;57203;42.672;23.334;2023-02-24T05:14:58;8.2;;;4.8;;
69917;SDS011;57203;42.672;23.334;2023-02-24T05:16:01;10.8;;;4.2;;
69917;SDS011;57203;42.672;23.334;2023-02-24T05:16:59;8.0;;;4.1;;
69917;SDS011;57203;42.672;23.334;2023-02-24T05:18:59;8.8;;;5.0;;
69917;SDS011;57203;42.672;23.334;2023-02-24T05:19:59;8.8;;;4.8;;
69917;SDS011;57203;42.672;23.334;2023-02-24T05:21:02;8.8;;;4.3;;
69917;SDS011;57203;42.672;23.334;2023-02-24T05:21:59;8.2;;;4.4;;
69917;SDS011;57203;42.672;23.334;2023-02-24T05:23:00;9.0;;;6.9;;
69917;SDS011;57203;42.672;23.334;2023-02-24T05:24:00;13.8;;;4.4;;
69917;SDS011;57203;42.672;23.334;2023-02-24T05:25:00;9.2;;;4.2;;
69917;SDS011;57203;42.672;23.334;2023-02-24T05:26:01;8.7;;;4.8;;
69917;SDS011;57203;42.672;23.334;2023-02-24T05:27:01;8.1;;;4.6;;
69917;SDS011;57203;42.672;23.334;2023-02-24T05:28:00;7.5;;;4.3;;
69917;SDS011;57203;42.672;23.334;2023-02-24T05:29:01;7.5;;;4.4;;
69917;SDS011;57203;42.672;23.334;2023-02-24T05:30:01;9.3;;;4.8;;
69917;SDS011;57203;42.672;23.334;2023-02-24T05:31:03;8.9;;;4.6;;
69917;SDS011;57203;42.672;23.334;2023-02-24T05:32:02;10.9;;;5.3;;
69917;SDS011;57203;42.672;23.334;2023-02-24T05:33:01;11.3;;;5.7;;
69917;SDS011;57203;42.672;23.334;2023-02-24T05:34:02;11.1;;;5.3;;
69917;SDS011;57203;42.672;23.334;2023-02-24T05:35:02;9.5;;;5.5;;
69917;SDS011;57203;42.672;23.334;2023-02-24T05:36:03;9.5;;;6.5;;
69917;SDS011;57203;42.672;23.334;2023-02-24T05:37:02;13.4;;;4.9;;
69917;SDS011;57203;42.672;23.334;2023-02-24T05:38:02;8.1;;;5.8;;
69917;SDS011;57203;42.672;23.334;2023-02-24T05:40:03;10.6;;;6.0;;
69917;SDS011;57203;42.672;23.334;2023-02-24T05:41:03;11.8;;;6.1;;
69917;SDS011;57203;42.672;23.334;2023-02-24T05:43:03;12.1;;;5.9;;
69917;SDS011;57203;42.672;23.334;2023-02-24T05:44:04;10.3;;;5.3;;
69917;SDS011;57203;42.672;23.334;2023-02-24T05:45:04;10.3;;;5.7;;
69917;SDS011;57203;42.672;23.334;2023-02-24T05:46:04;9.8;;;5.6;;
69917;SDS011;57203;42.672;23.334;2023-02-24T05:47:04;11.5;;;6.0;;
69917;SDS011;57203;42.672;23.334;2023-02-24T05:49:05;10.0;;;5.4;;
69917;SDS011;57203;42.672;23.334;2023-02-24T05:50:05;10.9;;;5.8;;
69917;SDS011;57203;42.672;23.334;2023-02-24T05:51:05;11.6;;;5.6;;
69917;SDS011;57203;42.672;23.334;2023-02-24T05:52:06;11.6;;;5.9;;
69917;SDS011;57203;42.672;23.334;2023-02-24T05:53:05;11.1;;;5.8;;
69917;SDS011;57203;42.672;23.334;2023-02-24T05:54:06;10.6;;;6.0;;
69917;SDS011;57203;42.672;23.334;2023-02-24T05:55:05;9.8;;;5.7;;
69917;SDS011;57203;42.672;23.334;2023-02-24T05:56:05;9.8;;;12.6;;
69917;SDS011;57203;42.672;23.334;2023-02-24T05:57:06;17.1;;;5.8;;
69917;SDS011;57203;42.672;23.334;2023-02-24T05:58:06;9.0;;;6.0;;
69917;SDS011;57203;42.672;23.334;2023-02-24T05:59:06;9.0;;;5.0;;
69917;SDS011;57203;42.672;23.334;2023-02-24T06:00:07;8.4;;;4.9;;
69917;SDS011;57203;42.672;23.334;2023-02-24T06:01:08;7.9;;;5.5;;
69917;SDS011;57203;42.672;23.334;2023-02-24T06:02:08;8.8;;;5.6;;
69917;SDS011;57203;42.672;23.334;2023-02-24T06:03:06;10.7;;;5.0;;
69917;SDS011;57203;42.672;23.334;2023-02-24T06:04:08;9.0;;;5.3;;
69917;SDS011;57203;42.672;23.334;2023-02-24T06:05:07;9.5;;;5.2;;
69917;SDS011;57203;42.672;23.334;2023-02-24T06:06:07;8.8;;;5.4;;
69917;SDS011;57203;42.672;23.334;2023-02-24T06:07:09;12.0;;;5.6;;
69917;SDS011;57203;42.672;23.334;2023-02-24T06:08:08;9.7;;;5.3;;
69917;SDS011;57203;42.672;23.334;2023-02-24T06:09:09;9.6;;;5.0;;
69917;SDS011;57203;42.672;23.334;2023-02-24T06:11:08;9.5;;;5.1;;
69917;SDS011;57203;42.672;23.334;2023-02-24T06:12:08;10.2;;;5.7;;
69917;SDS011;57203;42.672;23.334;2023-02-24T06:13:08;10.4;;;4.9;;
69917;SDS011;57203;42.672;23.334;2023-02-24T06:14:09;10.7;;;5.1;;
69917;SDS011;57203;42.672;23.334;2023-02-24T06:15:09;8.0;;;4.7;;
69917;SDS011;57203;42.672;23.334;2023-02-24T06:16:09;8.0;;;4.6;;
69917;SDS011;57203;42.672;23.334;2023-02-24T06:17:09;7.8;;;4.9;;
69917;SDS011;57203;42.672;23.334;2023-02-24T06:18:09;9.3;;;4.8;;
69917;SDS011;57203;42.672;23.334;2023-02-24T06:19:10;9.4;;;5.1;;
69917;SDS011;57203;42.672;23.334;2023-02-24T06:20:10;10.6;;;5.4;;
69917;SDS011;57203;42.672;23.334;2023-02-24T06:21:10;11.0;;;4.7;;
69917;SDS011;57203;42.672;23.334;2023-02-24T06:22:11;7.0;;;5.4;;
69917;SDS011;57203;42.672;23.334;2023-02-24T06:23:10;10.1;;;5.3;;
69917;SDS011;57203;42.672;23.334;2023-02-24T06:24:11;9.9;;;5.4;;
69917;SDS011;57203;42.672;23.334;2023-02-24T06:25:10;10.5;;;5.7;;
69917;SDS011;57203;42.672;23.334;2023-02-24T06:26:10;10.1;;;5.4;;
69917;SDS011;57203;42.672;23.334;2023-02-24T06:27:11;10.0;;;5.5;;
69917;SDS011;57203;42.672;23.334;2023-02-24T06:29:12;11.3;;;5.0;;
69917;SDS011;57203;42.672;23.334;2023-02-24T06:30:12;9.2;;;5.1;;
69917;SDS011;57203;42.672;23.334;2023-02-24T06:31:11;9.0;;;5.0;;
69917;SDS011;57203;42.672;23.334;2023-02-24T06:32:11;9.0;;;4.8;;
69917;SDS011;57203;42.672;23.334;2023-02-24T06:33:12;8.8;;;5.8;;
69917;SDS011;57203;42.672;23.334;2023-02-24T06:34:12;11.6;;;5.3;;
69917;SDS011;57203;42.672;23.334;2023-02-24T06:35:12;10.8;;;5.2;;
69917;SDS011;57203;42.672;23.334;2023-02-24T06:36:12;11.4;;;5.6;;
69917;SDS011;57203;42.672;23.334;2023-02-24T06:37:13;10.3;;;5.3;;